Time;durP1;ratioP1;P1;durP2;ratioP2;P2;SDS_P1;SDS_P2;PMS_P1;PMS_P2;Temp;Humidity;BMP_temperature;BMP_pressure;BME280_temperature;BME280_humidity;BME280_pressure;Samples;Min_cycle;Max_cycle;Signal;HPM_P1;HPM_P2
2021/07/06 00:01:33;;;;;;;;;;;15.70;82.70;;;;;;5052271;28;20007;-75
2021/07/06 00:03:59;;;;;;;;;;;15.80;82.80;;;;;;5031175;28;20372;-74
2021/07/06 00:06:25;;;;;;;;;;;15.80;83.00;;;;;;5024555;28;20296;-74
2021/07/06 00:08:51;;;;;;;;;;;15.70;83.10;;;;;;5050378;28;20261;-74
2021/07/06 00:11:18;;;;;;;;;;;15.70;83.00;;;;;;5052934;28;20007;-74
2021/07/06 00:13:44;;;;;;;;;;;15.70;83.00;;;;;;5052093;28;19927;-74
2021/07/06 00:16:10;;;;;;;;;;;15.70;82.40;;;;;;5052987;28;19928;-74
2021/07/06 00:18:36;;;;;;;;;;;15.70;82.80;;;;;;5052899;28;20388;-74
2021/07/06 00:21:03;;;;;;;;;;;15.70;82.20;;;;;;5052626;28;20398;-74
2021/07/06 00:23:29;;;;;;;;;;;15.70;82.20;;;;;;5053010;28;19928;-74
2021/07/06 00:25:55;;;;;;;;;;;15.80;81.50;;;;;;5052769;28;19974;-74
2021/07/06 00:28:23;;;;;;;;;;;15.70;81.20;;;;;;5052898;28;19920;-74
2021/07/06 00:30:50;;;;;;;;;;;15.80;81.80;;;;;;5034163;28;20432;-75
2021/07/06 00:33:17;;;;;;;;;;;15.80;81.20;;;;;;5052857;28;19999;-75
2021/07/06 00:35:43;;;;;;;;;;;15.70;81.20;;;;;;5052702;28;19974;-74
2021/07/06 00:38:10;;;;;;;;;;;15.70;80.30;;;;;;5052763;28;19921;-74
2021/07/06 00:40:37;;;;;;;;;;;15.70;80.50;;;;;;5052520;28;19968;-74
2021/07/06 00:43:03;;;;;;;;;;;15.70;79.90;;;;;;5028529;28;19921;-75
2021/07/06 00:45:29;;;;;;;;;;;15.70;79.90;;;;;;5043156;28;19920;-74
2021/07/06 00:48:00;;;;;;;;;;;15.60;79.70;;;;;;5051776;28;19965;-75
2021/07/06 00:50:27;;;;;;;;;;;15.60;80.00;;;;;;5050543;28;19924;-74
2021/07/06 00:52:54;;;;;;;;;;;15.60;79.20;;;;;;5033727;28;20377;-74
2021/07/06 00:55:20;;;;;;;;;;;15.60;79.20;;;;;;5051760;28;19921;-75
2021/07/06 00:57:47;;;;;;;;;;;15.60;79.40;;;;;;5051640;28;20035;-74
2021/07/06 01:00:15;;;;;;;;;;;15.60;79.60;;;;;;5051509;28;19928;-74
2021/07/06 01:02:42;;;;;;;;;;;15.60;79.00;;;;;;5051969;28;19928;-74
2021/07/06 01:05:11;;;;;;;;;;;15.60;79.20;;;;;;5033193;28;20043;-74
2021/07/06 01:07:38;;;;;;;;;;;15.50;79.20;;;;;;5051487;28;20021;-74
2021/07/06 01:10:07;;;;;;;;;;;15.50;78.70;;;;;;5051411;28;20392;-75
2021/07/06 01:12:34;;;;;;;;;;;15.50;78.30;;;;;;5049509;28;20428;-74
2021/07/06 01:15:00;;;;;;;;;;;15.50;78.20;;;;;;5051173;28;20282;-74
2021/07/06 01:17:28;;;;;;;;;;;15.50;77.10;;;;;;5051508;28;19924;-74
2021/07/06 01:19:59;;;;;;;;;;;15.50;76.70;;;;;;5051717;28;20281;-74
2021/07/06 01:22:30;;;;;;;;;;;15.50;76.60;;;;;;5055112;28;19935;-74
2021/07/06 01:24:56;;;;;;;;;;;15.40;76.90;;;;;;5055188;28;19928;-74
2021/07/06 01:27:22;;;;;;;;;;;15.40;76.90;;;;;;5055459;28;20005;-74
2021/07/06 01:29:49;;;;;;;;;;;15.40;76.30;;;;;;5055398;28;20407;-74
2021/07/06 01:32:15;;;;;;;;;;;15.40;75.50;;;;;;5054842;28;19920;-74
2021/07/06 01:34:41;;;;;;;;;;;15.40;75.50;;;;;;5055202;28;20003;-74
2021/07/06 01:37:08;;;;;;;;;;;15.40;75.00;;;;;;5054718;28;19924;-74
2021/07/06 01:39:34;;;;;;;;;;;15.40;74.60;;;;;;5055037;28;20376;-74
2021/07/06 01:42:00;;;;;;;;;;;15.30;74.70;;;;;;5055812;28;19927;-75
2021/07/06 01:44:27;;;;;;;;;;;15.30;74.40;;;;;;5055626;28;20015;-74
2021/07/06 01:46:54;;;;;;;;;;;15.30;74.30;;;;;;5055661;28;19948;-75
2021/07/06 01:49:20;;;;;;;;;;;15.30;74.30;;;;;;5055624;28;19974;-75
2021/07/06 01:51:47;;;;;;;;;;;15.30;74.00;;;;;;5055512;28;19921;-75
2021/07/06 01:54:14;;;;;;;;;;;15.30;74.50;;;;;;5055213;28;19921;-75
2021/07/06 01:56:40;;;;;;;;;;;15.30;74.00;;;;;;5055585;28;20047;-74
2021/07/06 01:59:07;;;;;;;;;;;15.40;74.10;;;;;;5055361;28;19939;-75
2021/07/06 02:01:33;;;;;;;;;;;15.40;73.50;;;;;;5055446;28;20011;-75
2021/07/06 02:04:00;;;;;;;;;;;15.40;73.60;;;;;;5055724;28;19928;-75
2021/07/06 02:06:26;;;;;;;;;;;15.40;74.50;;;;;;5055220;28;20388;-74
2021/07/06 02:08:52;;;;;;;;;;;15.40;74.10;;;;;;5052746;28;20314;-74
2021/07/06 02:11:18;;;;;;;;;;;15.40;74.10;;;;;;5037551;28;19921;-74
2021/07/06 02:13:45;;;;;;;;;;;15.50;74.30;;;;;;5054588;28;20336;-74
2021/07/06 02:16:11;;;;;;;;;;;15.40;74.70;;;;;;5055225;28;20011;-74
2021/07/06 02:18:37;;;;;;;;;;;15.40;74.30;;;;;;5055085;28;20003;-75
2021/07/06 02:21:03;;;;;;;;;;;15.40;74.40;;;;;;5055192;28;19921;-74
2021/07/06 02:23:30;;;;;;;;;;;15.40;74.10;;;;;;5054748;28;20003;-74
2021/07/06 02:25:59;;;;;;;;;;;15.50;74.10;;;;;;5036653;28;19925;-74
2021/07/06 02:28:26;;;;;;;;;;;15.50;74.40;;;;;;5054671;28;19973;-74
2021/07/06 02:30:52;;;;;;;;;;;15.50;74.70;;;;;;5054910;28;20372;-74
2021/07/06 02:33:19;;;;;;;;;;;15.50;74.20;;;;;;5036099;28;20015;-75
2021/07/06 02:35:45;;;;;;;;;;;15.50;74.10;;;;;;5053271;28;19928;-74
2021/07/06 02:38:12;;;;;;;;;;;15.50;73.90;;;;;;5054298;28;19952;-75
2021/07/06 02:40:38;;;;;;;;;;;15.50;73.60;;;;;;5054625;28;20107;-74
2021/07/06 02:43:04;;;;;;;;;;;15.60;73.30;;;;;;5054160;28;19971;-74
2021/07/06 02:45:30;;;;;;;;;;;15.60;73.20;;;;;;5054809;28;20042;-75
2021/07/06 02:47:57;;;;;;;;;;;15.50;73.20;;;;;;5054606;28;19971;-74
2021/07/06 02:50:24;;;;;;;;;;;15.50;73.20;;;;;;5054316;28;20467;-74
2021/07/06 02:52:50;;;;;;;;;;;15.60;73.20;;;;;;5054215;28;20011;-75
2021/07/06 02:55:18;;;;;;;;;;;15.60;73.30;;;;;;5059385;28;20399;-73
2021/07/06 02:57:45;;;;;;;;;;;15.60;73.00;;;;;;5054078;28;19921;-75
2021/07/06 03:00:13;;;;;;;;;;;15.60;72.60;;;;;;5064828;28;20009;-74
2021/07/06 03:02:40;;;;;;;;;;;15.60;72.70;;;;;;5056007;28;20011;-74
2021/07/06 03:05:08;;;;;;;;;;;15.50;73.00;;;;;;5053899;28;20009;-75
2021/07/06 03:07:34;;;;;;;;;;;15.50;72.90;;;;;;5053863;28;20021;-74
2021/07/06 03:10:02;;;;;;;;;;;15.50;73.20;;;;;;5054112;28;19921;-75
2021/07/06 03:12:28;;;;;;;;;;;15.50;73.20;;;;;;5054244;28;20396;-74
2021/07/06 03:14:55;;;;;;;;;;;15.50;73.30;;;;;;5053576;28;19960;-75
2021/07/06 03:17:21;;;;;;;;;;;15.50;73.80;;;;;;5065742;28;19974;-75
2021/07/06 03:19:47;;;;;;;;;;;15.50;73.90;;;;;;5055068;28;20467;-75
2021/07/06 03:22:13;;;;;;;;;;;15.50;74.00;;;;;;5059575;28;20054;-75
2021/07/06 03:24:39;;;;;;;;;;;15.50;74.00;;;;;;5053299;28;20622;-75
2021/07/06 03:27:05;;;;;;;;;;;15.50;74.40;;;;;;5053659;28;20371;-75
2021/07/06 03:29:32;;;;;;;;;;;15.50;74.80;;;;;;5035717;28;19996;-74
2021/07/06 03:31:58;;;;;;;;;;;15.50;75.50;;;;;;5053882;28;20003;-74
2021/07/06 03:34:24;;;;;;;;;;;15.50;75.90;;;;;;5053262;28;19999;-74
2021/07/06 03:36:51;;;;;;;;;;;15.50;76.00;;;;;;5064503;28;19931;-74
2021/07/06 03:39:17;;;;;;;;;;;15.50;76.40;;;;;;5053715;28;20484;-75
2021/07/06 03:41:43;;;;;;;;;;;15.50;76.70;;;;;;5053457;28;20003;-75
2021/07/06 03:44:10;;;;;;;;;;;15.40;77.20;;;;;;5052661;28;20414;-74
2021/07/06 03:46:36;;;;;;;;;;;15.40;77.20;;;;;;5064987;28;19960;-74
2021/07/06 03:49:02;;;;;;;;;;;15.40;77.70;;;;;;5053106;28;19928;-74
2021/07/06 03:51:29;;;;;;;;;;;15.30;78.20;;;;;;5053341;28;19921;-75
2021/07/06 03:53:55;;;;;;;;;;;15.30;78.50;;;;;;5053188;28;20391;-74
2021/07/06 03:56:21;;;;;;;;;;;15.30;78.60;;;;;;5059872;28;19927;-75
2021/07/06 03:58:48;;;;;;;;;;;15.30;78.50;;;;;;5050061;28;19920;-75
2021/07/06 04:01:14;;;;;;;;;;;15.30;78.90;;;;;;5033840;28;20328;-75
2021/07/06 04:03:40;;;;;;;;;;;15.30;79.00;;;;;;5047710;28;19931;-75
2021/07/06 04:06:06;;;;;;;;;;;15.30;79.00;;;;;;5053097;28;19955;-74
2021/07/06 04:08:32;;;;;;;;;;;15.30;79.10;;;;;;5052722;28;19927;-75
2021/07/06 04:10:58;;;;;;;;;;;15.30;78.90;;;;;;5045353;28;19972;-75
2021/07/06 04:13:24;;;;;;;;;;;15.30;79.00;;;;;;5052742;28;19951;-74
2021/07/06 04:15:51;;;;;;;;;;;15.30;79.20;;;;;;5047200;28;20070;-75
2021/07/06 04:18:17;;;;;;;;;;;15.30;79.20;;;;;;5052823;28;19928;-74
2021/07/06 04:20:43;;;;;;;;;;;15.30;79.00;;;;;;5052576;28;19920;-74
2021/07/06 04:23:10;;;;;;;;;;;15.20;79.30;;;;;;5049044;28;20408;-74
2021/07/06 04:25:36;;;;;;;;;;;15.20;79.60;;;;;;5052224;28;20272;-74
2021/07/06 04:28:03;;;;;;;;;;;15.20;79.60;;;;;;5050141;28;19956;-73
2021/07/06 04:30:30;;;;;;;;;;;15.20;80.20;;;;;;5052554;28;19967;-74
2021/07/06 04:32:56;;;;;;;;;;;15.20;79.70;;;;;;5034365;28;19928;-74
2021/07/06 04:35:22;;;;;;;;;;;15.30;79.30;;;;;;5028225;28;20364;-75
2021/07/06 04:37:49;;;;;;;;;;;15.20;79.80;;;;;;5050454;28;19924;-75
2021/07/06 04:40:16;;;;;;;;;;;15.30;79.70;;;;;;5047859;28;19921;-75
2021/07/06 04:42:42;;;;;;;;;;;15.20;79.50;;;;;;5030253;28;19921;-75
2021/07/06 04:45:09;;;;;;;;;;;15.30;78.90;;;;;;5051732;28;19999;-75
2021/07/06 04:47:35;;;;;;;;;;;15.30;79.20;;;;;;5033806;28;19921;-74
2021/07/06 04:50:02;;;;;;;;;;;15.20;79.50;;;;;;5052134;28;20015;-74
2021/07/06 04:52:28;;;;;;;;;;;15.20;79.40;;;;;;5045788;28;19925;-73
2021/07/06 04:54:56;;;;;;;;;;;15.20;79.50;;;;;;5050745;28;19928;-74
2021/07/06 04:57:22;;;;;;;;;;;15.30;78.90;;;;;;5046631;28;20603;-74
2021/07/06 04:59:49;;;;;;;;;;;15.30;79.10;;;;;;5047483;28;19921;-74
2021/07/06 05:02:15;;;;;;;;;;;15.20;79.20;;;;;;5050551;28;19963;-73
2021/07/06 05:04:41;;;;;;;;;;;15.20;79.40;;;;;;5056796;28;19921;-74
2021/07/06 05:07:08;;;;;;;;;;;15.30;79.00;;;;;;5042898;28;19925;-74
2021/07/06 05:09:34;;;;;;;;;;;15.30;78.90;;;;;;5048047;28;19983;-74
2021/07/06 05:12:01;;;;;;;;;;;15.30;78.10;;;;;;5055787;28;19924;-74
2021/07/06 05:14:28;;;;;;;;;;;15.30;78.30;;;;;;5054971;28;19973;-74
2021/07/06 05:16:54;;;;;;;;;;;15.30;78.20;;;;;;5055163;28;20354;-73
2021/07/06 05:19:20;;;;;;;;;;;15.30;78.40;;;;;;5035960;28;19948;-74
2021/07/06 05:21:46;;;;;;;;;;;15.30;78.20;;;;;;5054576;28;19968;-72
2021/07/06 05:24:12;;;;;;;;;;;15.30;77.80;;;;;;5055331;28;20020;-74
2021/07/06 05:26:39;;;;;;;;;;;15.30;77.60;;;;;;5054900;28;19989;-72
2021/07/06 05:29:05;;;;;;;;;;;15.30;78.00;;;;;;5054686;28;19928;-72
2021/07/06 05:31:31;;;;;;;;;;;15.30;78.10;;;;;;5054601;28;19960;-73
2021/07/06 05:33:57;;;;;;;;;;;15.40;78.50;;;;;;5034198;28;19964;-75
2021/07/06 05:36:23;;;;;;;;;;;15.40;78.30;;;;;;5051654;28;19921;-74
2021/07/06 05:38:50;;;;;;;;;;;15.40;78.20;;;;;;5067359;28;19960;-74
2021/07/06 05:41:16;;;;;;;;;;;15.40;77.90;;;;;;5049994;28;19971;-74
2021/07/06 05:43:43;;;;;;;;;;;15.40;77.70;;;;;;5054129;28;20059;-75
2021/07/06 05:46:09;;;;;;;;;;;15.50;77.80;;;;;;5051358;28;20364;-74
2021/07/06 05:48:35;;;;;;;;;;;15.40;77.70;;;;;;5054481;28;20308;-74
2021/07/06 05:51:01;;;;;;;;;;;15.50;77.70;;;;;;5048630;28;20397;-74
2021/07/06 05:53:28;;;;;;;;;;;15.50;77.80;;;;;;5054144;28;20070;-74
2021/07/06 05:55:54;;;;;;;;;;;15.50;77.50;;;;;;5054302;28;19974;-74
2021/07/06 05:58:20;;;;;;;;;;;15.60;77.50;;;;;;5041928;28;20385;-74
2021/07/06 06:00:46;;;;;;;;;;;15.50;77.70;;;;;;5052721;28;19927;-74
2021/07/06 06:03:12;;;;;;;;;;;15.50;77.50;;;;;;5053965;28;20003;-75
2021/07/06 06:05:39;;;;;;;;;;;15.50;77.50;;;;;;5054021;28;20007;-73
2021/07/06 06:08:05;;;;;;;;;;;15.60;77.50;;;;;;5031054;28;19921;-74
2021/07/06 06:10:32;;;;;;;;;;;15.50;77.80;;;;;;5040214;28;19972;-73
2021/07/06 06:12:58;;;;;;;;;;;15.50;77.50;;;;;;5052735;28;19999;-73
2021/07/06 06:15:24;;;;;;;;;;;15.60;77.60;;;;;;5045871;28;19921;-73
2021/07/06 06:17:50;;;;;;;;;;;15.60;77.50;;;;;;5052992;28;20008;-73
2021/07/06 06:20:17;;;;;;;;;;;15.60;77.60;;;;;;5047389;28;19928;-73
2021/07/06 06:22:43;;;;;;;;;;;15.70;77.50;;;;;;5045371;28;19956;-74
2021/07/06 06:25:10;;;;;;;;;;;15.70;77.30;;;;;;5040355;28;20007;-75
2021/07/06 06:27:37;;;;;;;;;;;15.70;77.20;;;;;;5057823;28;19964;-73
2021/07/06 06:30:04;;;;;;;;;;;15.80;76.90;;;;;;5049817;28;19920;-74
2021/07/06 06:32:30;;;;;;;;;;;15.80;76.30;;;;;;5035983;28;19960;-73
2021/07/06 06:34:56;;;;;;;;;;;15.80;76.70;;;;;;5048706;28;19971;-74
2021/07/06 06:37:22;;;;;;;;;;;15.80;76.50;;;;;;5050303;28;20512;-73
2021/07/06 06:39:49;;;;;;;;;;;15.80;76.60;;;;;;5046021;28;20071;-73
2021/07/06 06:42:15;;;;;;;;;;;15.90;77.00;;;;;;5048476;28;20061;-73
2021/07/06 06:44:41;;;;;;;;;;;16.00;76.70;;;;;;5046689;28;19929;-73
2021/07/06 06:47:07;;;;;;;;;;;16.00;75.90;;;;;;5047800;28;20392;-74
2021/07/06 06:49:33;;;;;;;;;;;16.10;76.10;;;;;;5046869;28;21173;-73
2021/07/06 06:52:00;;;;;;;;;;;16.10;75.30;;;;;;5046953;28;19925;-73
2021/07/06 06:54:26;;;;;;;;;;;16.10;75.70;;;;;;5065846;28;20011;-73
2021/07/06 06:56:52;;;;;;;;;;;16.10;75.10;;;;;;5055481;28;19924;-74
2021/07/06 06:59:19;;;;;;;;;;;16.10;75.20;;;;;;5044774;28;20452;-73
2021/07/06 07:01:45;;;;;;;;;;;16.10;75.10;;;;;;5043605;28;19925;-73
2021/07/06 07:04:11;;;;;;;;;;;16.20;75.00;;;;;;5047516;28;19928;-73
2021/07/06 07:06:37;;;;;;;;;;;16.20;74.50;;;;;;5054566;28;19969;-73
2021/07/06 07:09:04;;;;;;;;;;;16.10;74.20;;;;;;5049491;28;19964;-73
2021/07/06 07:11:30;;;;;;;;;;;16.10;74.50;;;;;;5040648;28;19932;-73
2021/07/06 07:13:56;;;;;;;;;;;16.20;74.70;;;;;;5049019;28;20441;-73
2021/07/06 07:16:22;;;;;;;;;;;16.20;74.00;;;;;;5039768;28;20003;-73
2021/07/06 07:18:49;;;;;;;;;;;16.40;73.80;;;;;;5044924;28;19954;-74
2021/07/06 07:21:15;;;;;;;;;;;16.40;73.40;;;;;;5039745;28;19945;-74
2021/07/06 07:23:41;;;;;;;;;;;16.60;73.30;;;;;;5049451;28;19974;-74
2021/07/06 07:26:08;;;;;;;;;;;16.60;72.50;;;;;;5049226;28;19973;-73
2021/07/06 07:28:35;;;;;;;;;;;16.70;71.60;;;;;;5049086;28;20507;-73
2021/07/06 07:31:02;;;;;;;;;;;16.70;72.70;;;;;;5048706;28;19924;-73
2021/07/06 07:33:28;;;;;;;;;;;16.80;73.20;;;;;;5049212;28;19962;-73
2021/07/06 07:35:54;;;;;;;;;;;16.80;72.00;;;;;;5043820;28;20350;-73
2021/07/06 07:38:20;;;;;;;;;;;16.80;70.50;;;;;;5049091;28;19925;-73
2021/07/06 07:40:46;;;;;;;;;;;16.90;71.90;;;;;;5048482;28;19931;-73
2021/07/06 07:43:13;;;;;;;;;;;17.00;72.00;;;;;;5048440;28;19936;-74
2021/07/06 07:45:39;;;;;;;;;;;17.00;70.80;;;;;;5043817;28;19993;-73
2021/07/06 07:48:06;;;;;;;;;;;17.00;71.00;;;;;;5049602;28;19932;-73
2021/07/06 07:50:32;;;;;;;;;;;17.10;70.80;;;;;;5044112;28;19973;-73
2021/07/06 07:52:58;;;;;;;;;;;17.30;70.40;;;;;;5049074;28;20046;-73
2021/07/06 07:55:24;;;;;;;;;;;17.40;69.70;;;;;;5041983;28;20424;-73
2021/07/06 07:57:50;;;;;;;;;;;17.60;68.80;;;;;;5048772;28;20007;-73
2021/07/06 08:00:16;;;;;;;;;;;17.70;68.60;;;;;;5041337;28;19925;-73
2021/07/06 08:02:43;;;;;;;;;;;17.80;68.00;;;;;;5049114;28;19925;-73
2021/07/06 08:05:09;;;;;;;;;;;17.80;66.50;;;;;;5043618;28;20019;-74
2021/07/06 08:07:35;;;;;;;;;;;17.90;66.00;;;;;;5048573;28;19978;-73
2021/07/06 08:10:02;;;;;;;;;;;17.90;66.20;;;;;;5043693;28;20393;-73
2021/07/06 08:12:28;;;;;;;;;;;18.00;67.50;;;;;;5045341;28;20008;-73
2021/07/06 08:14:54;;;;;;;;;;;18.10;67.10;;;;;;5044396;28;20026;-73
2021/07/06 08:17:20;;;;;;;;;;;18.20;66.40;;;;;;5044162;28;19932;-73
2021/07/06 08:19:46;;;;;;;;;;;18.00;65.60;;;;;;5033698;28;19928;-73
2021/07/06 08:22:13;;;;;;;;;;;18.00;66.30;;;;;;5044317;28;20418;-74
2021/07/06 08:24:39;;;;;;;;;;;18.00;66.50;;;;;;5050044;28;20007;-74
2021/07/06 08:27:05;;;;;;;;;;;18.00;66.90;;;;;;5056296;28;19991;-74
2021/07/06 08:29:31;;;;;;;;;;;17.90;67.50;;;;;;5047951;28;19978;-74
2021/07/06 08:31:58;;;;;;;;;;;17.90;66.10;;;;;;5037668;28;19995;-74
2021/07/06 08:34:24;;;;;;;;;;;17.90;65.50;;;;;;5048367;28;20655;-74
2021/07/06 08:36:51;;;;;;;;;;;17.70;66.10;;;;;;5045335;28;19924;-73
2021/07/06 08:39:17;;;;;;;;;;;17.70;67.00;;;;;;5048207;28;19924;-74
2021/07/06 08:41:43;;;;;;;;;;;17.60;66.50;;;;;;5034732;28;20078;-74
2021/07/06 08:44:09;;;;;;;;;;;17.70;66.20;;;;;;5048666;28;19946;-74
2021/07/06 08:46:36;;;;;;;;;;;17.90;65.40;;;;;;5053846;28;20058;-74
2021/07/06 08:49:03;;;;;;;;;;;18.20;64.40;;;;;;5047491;28;20408;-73
2021/07/06 08:51:30;;;;;;;;;;;18.50;63.70;;;;;;5043019;28;19924;-73
2021/07/06 08:53:56;;;;;;;;;;;18.70;62.90;;;;;;5048113;28;20011;-74
2021/07/06 08:56:23;;;;;;;;;;;18.90;62.20;;;;;;5040833;28;20011;-73
2021/07/06 08:58:50;;;;;;;;;;;18.90;62.80;;;;;;5047973;28;19974;-73
2021/07/06 09:01:17;;;;;;;;;;;19.20;61.30;;;;;;5057240;28;20058;-73
2021/07/06 09:03:56;;;;;;;;;;;19.30;60.90;;;;;;5048579;28;19924;-73
2021/07/06 09:06:23;;;;;;;;;;;19.40;60.20;;;;;;5040770;28;19924;-73
2021/07/06 09:08:53;;;;;;;;;;;19.50;59.50;;;;;;5047639;28;20012;-73
2021/07/06 09:11:21;;;;;;;;;;;19.40;60.20;;;;;;5056712;28;19924;-74
2021/07/06 09:13:48;;;;;;;;;;;19.30;59.80;;;;;;5037967;28;20051;-74
2021/07/06 09:16:22;;;;;;;;;;;19.10;59.30;;;;;;5058798;28;19924;-74
2021/07/06 09:18:48;;;;;;;;;;;18.90;60.20;;;;;;5048045;28;20396;-74
2021/07/06 09:21:15;;;;;;;;;;;18.80;60.20;;;;;;5041663;28;20279;-74
2021/07/06 09:23:45;;;;;;;;;;;18.70;60.50;;;;;;5047541;28;20597;-73
2021/07/06 09:26:22;;;;;;;;;;;18.60;60.70;;;;;;5058667;28;19932;-74
2021/07/06 09:28:49;;;;;;;;;;;18.50;60.70;;;;;;5048023;28;19932;-73
2021/07/06 09:31:25;;;;;;;;;;;18.50;61.20;;;;;;5035487;28;20391;-73
2021/07/06 09:34:03;;;;;;;;;;;18.60;61.00;;;;;;5047884;28;20145;-73
2021/07/06 09:36:30;;;;;;;;;;;18.90;60.50;;;;;;5043357;28;20350;-73
2021/07/06 09:39:10;;;;;;;;;;;19.30;59.60;;;;;;5047056;28;20692;-73
2021/07/06 09:41:37;;;;;;;;;;;19.70;59.00;;;;;;5030897;28;20360;-73
2021/07/06 09:44:13;;;;;;;;;;;19.90;57.10;;;;;;5042855;28;19928;-74
2021/07/06 09:46:51;;;;;;;;;;;20.00;56.10;;;;;;5051319;28;19924;-73
2021/07/06 09:49:19;;;;;;;;;;;20.10;56.70;;;;;;5051976;28;19931;-74
2021/07/06 09:51:46;;;;;;;;;;;20.10;55.60;;;;;;5027372;28;20011;-75
2021/07/06 09:54:25;;;;;;;;;;;20.10;55.60;;;;;;5051388;28;19925;-74
2021/07/06 09:56:51;;;;;;;;;;;20.20;56.10;;;;;;5046000;28;19925;-74
2021/07/06 09:59:18;;;;;;;;;;;20.40;55.30;;;;;;5051411;28;19929;-74
2021/07/06 10:01:54;;;;;;;;;;;20.50;55.30;;;;;;5059528;28;19974;-73
2021/07/06 10:04:21;;;;;;;;;;;20.40;53.90;;;;;;5037318;28;19975;-74
2021/07/06 10:06:47;;;;;;;;;;;20.20;55.00;;;;;;5048602;28;19925;-74
2021/07/06 10:09:14;;;;;;;;;;;20.10;54.70;;;;;;5051024;28;20419;-74
2021/07/06 10:11:40;;;;;;;;;;;20.00;54.80;;;;;;5050547;28;20024;-74
2021/07/06 10:14:06;;;;;;;;;;;19.90;55.40;;;;;;5050649;28;19979;-74
2021/07/06 10:16:33;;;;;;;;;;;19.90;55.20;;;;;;5049004;28;20452;-73
2021/07/06 10:18:59;;;;;;;;;;;20.00;54.50;;;;;;5050909;28;19924;-74
2021/07/06 10:21:27;;;;;;;;;;;20.10;53.40;;;;;;5040173;28;20316;-74
2021/07/06 10:23:53;;;;;;;;;;;20.20;53.20;;;;;;5051093;28;19925;-73
2021/07/06 10:26:23;;;;;;;;;;;20.20;53.10;;;;;;5061270;28;19920;-74
2021/07/06 10:28:50;;;;;;;;;;;20.30;53.90;;;;;;5050730;28;20067;-74
2021/07/06 10:31:17;;;;;;;;;;;20.40;52.60;;;;;;5038321;28;19929;-74
2021/07/06 10:33:47;;;;;;;;;;;20.20;53.40;;;;;;5039852;28;20405;-74
2021/07/06 10:36:14;;;;;;;;;;;20.20;53.60;;;;;;5046101;28;19932;-74
2021/07/06 10:38:41;;;;;;;;;;;20.30;52.40;;;;;;5050561;28;20007;-74
2021/07/06 10:41:13;;;;;;;;;;;20.30;51.80;;;;;;5063973;28;19990;-74
2021/07/06 10:43:42;;;;;;;;;;;20.30;51.30;;;;;;5031732;28;20403;-74
2021/07/06 10:46:14;;;;;;;;;;;20.10;51.80;;;;;;5046202;28;20019;-74
2021/07/06 10:48:42;;;;;;;;;;;20.10;53.10;;;;;;5050401;28;20078;-74
2021/07/06 10:51:09;;;;;;;;;;;20.20;53.50;;;;;;5055927;28;20026;-74
2021/07/06 10:53:35;;;;;;;;;;;20.20;52.90;;;;;;5063839;28;20340;-74
2021/07/06 10:56:07;;;;;;;;;;;20.40;51.80;;;;;;5044168;28;19932;-74
2021/07/06 10:58:48;;;;;;;;;;;20.40;52.60;;;;;;5049632;28;19924;-74
2021/07/06 11:01:33;;;;;;;;;;;20.40;53.00;;;;;;5042629;28;19978;-75
2021/07/06 11:03:59;;;;;;;;;;;20.40;51.90;;;;;;5049946;28;19924;-74
2021/07/06 11:06:48;;;;;;;;;;;20.40;51.10;;;;;;5057037;28;19924;-74
2021/07/06 11:09:17;;;;;;;;;;;20.30;52.00;;;;;;5022589;28;20415;-74
2021/07/06 11:11:44;;;;;;;;;;;20.20;51.90;;;;;;5041149;28;20460;-74
2021/07/06 11:14:23;;;;;;;;;;;20.30;51.00;;;;;;5049251;28;19947;-74
2021/07/06 11:16:58;;;;;;;;;;;20.40;50.20;;;;;;5040962;28;20011;-74
2021/07/06 11:19:31;;;;;;;;;;;20.40;50.20;;;;;;5064317;28;20015;-74
2021/07/06 11:22:16;;;;;;;;;;;20.50;51.10;;;;;;5040731;28;20039;-74
2021/07/06 11:24:46;;;;;;;;;;;20.50;50.80;;;;;;5054023;28;19928;-74
2021/07/06 11:27:32;;;;;;;;;;;20.60;51.20;;;;;;5056832;28;20009;-74
2021/07/06 11:30:19;;;;;;;;;;;20.70;50.80;;;;;;5038717;28;20345;-74
2021/07/06 11:33:04;;;;;;;;;;;20.70;50.00;;;;;;5042893;28;20069;-74
2021/07/06 11:35:32;;;;;;;;;;;20.80;50.80;;;;;;5045358;28;19982;-74
2021/07/06 11:37:59;;;;;;;;;;;20.70;50.00;;;;;;5049214;28;19924;-74
2021/07/06 11:40:25;;;;;;;;;;;20.50;51.20;;;;;;5030802;28;19978;-74
2021/07/06 11:42:52;;;;;;;;;;;20.40;51.90;;;;;;5049059;28;19932;-75
2021/07/06 11:45:22;;;;;;;;;;;20.30;52.00;;;;;;5043480;28;20027;-74
2021/07/06 11:47:48;;;;;;;;;;;20.10;52.40;;;;;;5048853;28;20308;-75
2021/07/06 11:50:24;;;;;;;;;;;20.00;53.00;;;;;;5054236;28;19928;-74
2021/07/06 11:52:51;;;;;;;;;;;19.90;53.60;;;;;;5064177;28;20003;-74
2021/07/06 11:55:24;;;;;;;;;;;19.90;53.90;;;;;;5041632;28;20023;-74
2021/07/06 11:57:51;;;;;;;;;;;19.80;54.50;;;;;;5049001;28;20003;-74
2021/07/06 12:00:18;;;;;;;;;;;19.70;54.70;;;;;;5041257;28;20001;-74
2021/07/06 12:02:44;;;;;;;;;;;19.60;55.90;;;;;;5048878;28;20403;-74
2021/07/06 12:05:14;;;;;;;;;;;19.60;56.60;;;;;;5041241;28;20015;-75
2021/07/06 12:07:40;;;;;;;;;;;19.60;56.40;;;;;;5048692;28;19925;-74
2021/07/06 12:10:09;;;;;;;;;;;19.60;56.40;;;;;;5042140;28;19952;-74
2021/07/06 12:12:36;;;;;;;;;;;19.50;56.40;;;;;;5046896;28;19924;-74
2021/07/06 12:15:06;;;;;;;;;;;19.50;56.70;;;;;;5031334;28;20487;-75
2021/07/06 12:17:33;;;;;;;;;;;19.50;57.40;;;;;;5050776;28;19925;-74
2021/07/06 12:20:02;;;;;;;;;;;19.50;58.40;;;;;;5042877;28;19996;-75
2021/07/06 12:22:28;;;;;;;;;;;19.60;57.20;;;;;;5046439;28;19924;-74
2021/07/06 12:24:56;;;;;;;;;;;19.60;58.00;;;;;;5037120;28;19927;-75
2021/07/06 12:27:23;;;;;;;;;;;19.60;58.20;;;;;;5045720;28;19925;-75
2021/07/06 12:30:02;;;;;;;;;;;19.60;57.80;;;;;;5054743;28;20617;-74
2021/07/06 12:32:29;;;;;;;;;;;19.60;57.70;;;;;;5053990;28;20035;-74
2021/07/06 12:34:57;;;;;;;;;;;19.60;57.50;;;;;;5048369;28;19928;-75
2021/07/06 12:37:24;;;;;;;;;;;19.50;58.30;;;;;;5048983;28;19949;-77
2021/07/06 12:39:53;;;;;;;;;;;19.40;58.90;;;;;;5049141;28;20634;-77
2021/07/06 12:42:22;;;;;;;;;;;19.30;59.80;;;;;;5048153;28;20012;-74
2021/07/06 12:44:51;;;;;;;;;;;19.30;60.90;;;;;;5048904;28;19960;-76
2021/07/06 12:47:29;;;;;;;;;;;19.10;62.50;;;;;;5033933;28;19978;-76
2021/07/06 12:49:57;;;;;;;;;;;19.00;64.10;;;;;;5043006;28;19924;-76
2021/07/06 12:52:24;;;;;;;;;;;18.90;63.20;;;;;;5048257;28;19925;-76
2021/07/06 12:54:51;;;;;;;;;;;18.90;62.50;;;;;;5049282;28;19925;-77
2021/07/06 12:57:30;;;;;;;;;;;18.90;63.90;;;;;;5029457;28;19924;-77
2021/07/06 13:00:29;;;;;;;;;;;18.80;63.80;;;;;;5049093;28;19925;-77
2021/07/06 13:03:08;;;;;;;;;;;18.90;65.10;;;;;;4947277;29;20042;-74
2021/07/06 13:05:41;;;;;;;;;;;19.00;65.00;;;;;;4947477;28;19972;-75
2021/07/06 13:08:20;;;;;;;;;;;19.00;64.70;;;;;;4947638;28;20013;-76
2021/07/06 13:10:47;;;;;;;;;;;19.00;64.80;;;;;;4947910;28;20408;-76
2021/07/06 13:13:14;;;;;;;;;;;19.00;65.40;;;;;;4947638;28;20465;-75
2021/07/06 13:15:44;;;;;;;;;;;19.00;65.50;;;;;;4948678;29;19930;-75
2021/07/06 13:18:11;;;;;;;;;;;19.00;65.80;;;;;;4953662;28;19922;-74
2021/07/06 13:20:39;;;;;;;;;;;19.00;66.40;;;;;;4951966;28;19997;-75
2021/07/06 13:23:05;;;;;;;;;;;19.00;66.40;;;;;;4950919;29;19933;-75
2021/07/06 13:25:32;;;;;;;;;;;19.00;66.50;;;;;;4951483;28;20389;-75
2021/07/06 13:27:58;;;;;;;;;;;19.10;66.90;;;;;;4951128;29;19953;-75
2021/07/06 13:30:29;;;;;;;;;;;19.00;66.40;;;;;;4951260;29;19926;-75
2021/07/06 13:32:59;;;;;;;;;;;19.00;67.20;;;;;;4950044;29;19984;-75
2021/07/06 13:35:25;;;;;;;;;;;19.00;67.40;;;;;;4951115;28;19926;-75
2021/07/06 13:37:51;;;;;;;;;;;19.00;67.40;;;;;;4970945;28;20003;-75
2021/07/06 13:40:18;;;;;;;;;;;19.00;67.90;;;;;;5052166;28;19924;-75
2021/07/06 13:42:45;;;;;;;;;;;19.10;68.20;;;;;;5051459;28;19924;-75
2021/07/06 13:45:12;;;;;;;;;;;19.20;67.80;;;;;;5037805;28;20351;-74
2021/07/06 13:47:39;;;;;;;;;;;19.10;67.00;;;;;;5032751;28;19986;-75
2021/07/06 13:50:10;;;;;;;;;;;19.10;67.20;;;;;;5033840;28;19925;-75
2021/07/06 13:52:36;;;;;;;;;;;19.00;68.10;;;;;;5051292;28;19972;-75
2021/07/06 13:55:03;;;;;;;;;;;19.00;68.60;;;;;;5057408;28;20010;-76
2021/07/06 13:57:29;;;;;;;;;;;18.90;69.10;;;;;;5050693;28;19947;-75
2021/07/06 13:59:55;;;;;;;;;;;18.90;69.50;;;;;;5051444;28;20062;-75
2021/07/06 14:02:21;;;;;;;;;;;18.90;70.00;;;;;;5050674;28;19960;-75
2021/07/06 14:04:48;;;;;;;;;;;18.80;70.30;;;;;;5055974;28;20049;-75
2021/07/06 14:07:15;;;;;;;;;;;18.80;71.30;;;;;;5052936;28;19924;-75
2021/07/06 14:09:42;;;;;;;;;;;18.70;72.10;;;;;;5046279;28;20589;-75
2021/07/06 14:12:15;;;;;;;;;;;18.80;72.10;;;;;;5037639;28;19954;-75
2021/07/06 14:14:42;;;;;;;;;;;18.80;72.10;;;;;;5054206;28;19975;-75
2021/07/06 14:17:08;;;;;;;;;;;19.00;72.20;;;;;;5057005;28;20043;-75
2021/07/06 14:19:35;;;;;;;;;;;19.20;73.50;;;;;;5029529;28;19976;-77